Wec Mondriaan — CQCY — position and weather

sailwx.info

Track history (hours):
 
Tides and Currents Weather Stations Pressure Air Temp Water Temp Dewpoint Dewpoint Depression Visibility Wind Speed Wind Dir Waves Ship Positions

Wec Mondriaan

Last reported at 2017-Sep-23 23:30 UTC. Time now 2017-Sep-23 23:56 UTC.
Position N 52°22' W 005°35'.

Length 134 m; draft 7.2 m.

Type: Ship (hazmat cat A). MMSI: 255805775.

Date/timePositionNaut miles runAvg speedWind from/ knotsBaromVisibWave heightAir tempDewpointWater temp
2017-Sep-23 23:30N 52°22' W 005°35'113 2.5
2017-Sep-22 01:52N 53°28' W 003°02'0 0.6
2017-Sep-22 01:30N 53°27' W 003°02'0 0.0
2017-Sep-22 01:00N 53°27' W 003°02'1 1.1
2017-Sep-22 00:30N 53°27' W 003°01'0 0.5
2017-Sep-22 00:00N 53°27' W 003°01'1 1.3
2017-Sep-21 23:31N 53°27' W 003°02'713.1
2017-Sep-21 23:00N 53°32' W 003°10'917.2
2017-Sep-21 22:30N 53°30' W 003°24'2 3.5
2017-Sep-21 21:58N 53°29' W 003°27'0 0.0
2017-Sep-21 21:28N 53°29' W 003°27'0 0.0
2017-Sep-21 20:58N 53°29' W 003°27'0 0.0
2017-Sep-21 20:28N 53°29' W 003°27'0 0.0
2017-Sep-21 19:58N 53°29' W 003°27'0 0.0
2017-Sep-21 19:28N 53°29' W 003°27'0 0.0
2017-Sep-21 18:58N 53°29' W 003°27'0 0.0
2017-Sep-21 18:25N 53°29' W 003°27'0 0.0
2017-Sep-21 17:55N 53°29' W 003°27'0 0.2
2017-Sep-21 17:28N 53°29' W 003°27'0 0.1
2017-Sep-21 16:58N 53°29' W 003°27'0 0.1
2017-Sep-21 16:28N 53°29' W 003°27'0 0.0
2017-Sep-21 15:55N 53°29' W 003°27'0 0.0
2017-Sep-21 15:25N 53°29' W 003°27'0 0.0
2017-Sep-21 14:58N 53°29' W 003°27'0 0.0
2017-Sep-21 14:25N 53°29' W 003°27'0 0.0
2017-Sep-21 13:58N 53°29' W 003°27'0 0.1
2017-Sep-21 13:28N 53°29' W 003°27'0 0.3
2017-Sep-21 12:55N 53°29' W 003°27'0 0.2
2017-Sep-21 12:22N 53°29' W 003°27'0 0.1
2017-Sep-21 11:58N 53°29' W 003°27'0 0.1
2017-Sep-21 11:28N 53°29' W 003°27'0 0.0
2017-Sep-21 10:43N 53°29' W 003°27'0 0.0
2017-Sep-21 10:28N 53°29' W 003°27'0 0.1
2017-Sep-21 09:58N 53°29' W 003°27'0 0.1
2017-Sep-21 09:28N 53°29' W 003°27'0 0.0
2017-Sep-21 08:58N 53°29' W 003°27'0 0.0
2017-Sep-21 08:25N 53°29' W 003°27'0 0.0
2017-Sep-21 07:58N 53°29' W 003°27'0 0.1
2017-Sep-21 07:28N 53°29' W 003°27'0 0.2
2017-Sep-21 06:46N 53°29' W 003°27'0 0.3
2017-Sep-21 06:28N 53°29' W 003°27'0 0.0
2017-Sep-21 05:58N 53°29' W 003°27'0 0.0
2017-Sep-21 05:28N 53°29' W 003°27'0 0.4
2017-Sep-21 05:00N 53°30' W 003°28'5 9.5
2017-Sep-21 04:30N 53°31' W 003°35'714.3
2017-Sep-21 04:00N 53°31' W 003°47'714.2
2017-Sep-21 03:30N 53°30' W 003°59'34515.9
2017-Sep-20 05:43N 48°11' W 007°29'1416.6
2017-Sep-20 04:54N 47°58' W 007°36'1617.3
2017-Sep-20 03:59N 47°43' W 007°43'51616.3
2017-Sep-18 20:14N 39°16' W 009°52'416.3
2017-Sep-18 20:01N 39°12' W 009°52'816.1
2017-Sep-18 19:31N 39°04' W 009°52'816.3
2017-Sep-18 19:00N 38°56' W 009°52'815.7
2017-Sep-18 18:30N 38°48' W 009°52'815.6
2017-Sep-18 18:00N 38°40' W 009°50'714.6
2017-Sep-18 17:30N 38°35' W 009°44'816.3
2017-Sep-18 17:00N 38°30' W 009°36'816.1
2017-Sep-18 16:30N 38°26' W 009°27'815.4
2017-Sep-18 16:00N 38°22' W 009°19'815.2
2017-Sep-18 15:30N 38°20' W 009°09'714.3
2017-Sep-18 15:00N 38°23' W 009°01'713.6
2017-Sep-18 14:31N 38°29' W 008°57'4 7.3
2017-Sep-18 13:58N 38°31' W 008°52'0 0.0
2017-Sep-18 12:34N 38°31' W 008°52'0 0.0
2017-Sep-18 12:29N 38°31' W 008°52'0 0.0
2017-Sep-18 10:53N 38°31' W 008°52'0 0.0
2017-Sep-18 10:29N 38°31' W 008°52'0 0.0
2017-Sep-18 09:59N 38°31' W 008°52'0 0.0
2017-Sep-18 09:23N 38°31' W 008°52'0 0.0
2017-Sep-18 08:59N 38°31' W 008°52'0 0.0
2017-Sep-18 08:29N 38°31' W 008°52'0 0.0
2017-Sep-18 07:59N 38°31' W 008°52'0 0.0
2017-Sep-18 07:29N 38°31' W 008°52'0 0.0
2017-Sep-18 06:59N 38°31' W 008°52'0 0.0
2017-Sep-18 06:29N 38°31' W 008°52'0 0.0
2017-Sep-18 05:59N 38°31' W 008°52'0 0.0
2017-Sep-18 05:29N 38°31' W 008°52'0 0.0
2017-Sep-18 04:59N 38°31' W 008°52'0 0.0
2017-Sep-18 04:29N 38°31' W 008°52'0 0.0
2017-Sep-18 03:59N 38°31' W 008°52'0 0.0
2017-Sep-18 03:26N 38°31' W 008°52'0 0.0
2017-Sep-18 02:59N 38°31' W 008°52'0 0.0
2017-Sep-18 02:29N 38°31' W 008°52'0 0.0
2017-Sep-18 01:59N 38°31' W 008°52'0 0.0
2017-Sep-18 01:29N 38°31' W 008°52'0 0.0
2017-Sep-18 00:59N 38°31' W 008°52'0 0.0
2017-Sep-18 00:29N 38°31' W 008°52'0 0.0
2017-Sep-17 23:56N 38°31' W 008°52'0 0.0
2017-Sep-17 23:29N 38°31' W 008°52'0 0.0
2017-Sep-17 23:00N 38°31' W 008°52'2 3.8
2017-Sep-17 22:31N 38°30' W 008°55'713.3
2017-Sep-17 22:00N 38°25' W 008°59'816.1
2017-Sep-17 21:30N 38°17' W 008°59'816.2
2017-Sep-17 21:00N 38°09' W 008°59'713.7
2017-Sep-17 20:31N 38°02' W 008°59'714.9
2017-Sep-17 20:01N 37°56' W 008°54'2 4.5
2017-Sep-17 19:28N 37°56' W 008°51'0 0.0
2017-Sep-17 18:58N 37°56' W 008°51'0 0.0
2017-Sep-17 18:28N 37°56' W 008°51'0 0.0
2017-Sep-17 17:58N 37°56' W 008°51'0 0.0
2017-Sep-17 17:28N 37°56' W 008°51'0 0.0
2017-Sep-17 16:58N 37°56' W 008°51'0 0.0
2017-Sep-17 16:28N 37°56' W 008°51'0 0.0
2017-Sep-17 15:58N 37°56' W 008°51'0 0.0
2017-Sep-17 15:28N 37°56' W 008°51'0 0.0
2017-Sep-17 14:58N 37°56' W 008°51'0 0.0
2017-Sep-17 14:28N 37°56' W 008°51'0 0.0
2017-Sep-17 13:58N 37°56' W 008°51'0 0.0
2017-Sep-17 13:28N 37°56' W 008°51'0 0.0
2017-Sep-17 12:58N 37°56' W 008°51'0 0.0
2017-Sep-17 12:28N 37°56' W 008°51'0 0.0
2017-Sep-17 11:58N 37°56' W 008°51'0 0.0
2017-Sep-17 11:28N 37°56' W 008°51'0 0.0
2017-Sep-17 10:58N 37°56' W 008°51'1 1.8
2017-Sep-17 10:30N 37°55' W 008°50'4 8.5
2017-Sep-17 10:00N 37°51' W 008°53'4 8.9
2017-Sep-17 09:30N 37°48' W 008°57'4 8.5
2017-Sep-17 09:01N 37°51' W 009°01'5 9.4
2017-Sep-17 08:30N 37°55' W 009°03'510.4
2017-Sep-17 08:00N 38°01' W 009°02'510.0
2017-Sep-17 07:30N 38°05' W 009°04'511.0
2017-Sep-17 07:00N 38°09' W 009°09'611.1
2017-Sep-17 06:30N 38°14' W 009°13'713.9
2017-Sep-17 06:00N 38°19' W 009°19'816.9
2017-Sep-17 05:30N 38°25' W 009°26'816.7
2017-Sep-17 05:00N 38°31' W 009°33'816.2
2017-Sep-17 04:30N 38°38' W 009°40'816.0
2017-Sep-17 04:00N 38°45' W 009°43'816.4
2017-Sep-17 03:30N 38°54' W 009°43'816.6
2017-Sep-17 03:00N 39°02' W 009°44'816.4
2017-Sep-17 02:30N 39°10' W 009°44'816.7
2017-Sep-17 02:00N 39°18' W 009°44'816.7
2017-Sep-17 01:30N 39°27' W 009°44'916.4
2017-Sep-17 00:59N 39°35' W 009°41'  
2017-Sep-14 11:44N 49°43' W 003°40'312.6
2017-Sep-14 11:30N 49°44' W 003°36'612.6
2017-Sep-14 11:00N 49°47' W 003°27'612.8
2017-Sep-14 10:30N 49°50' W 003°18'713.5
2017-Sep-14 10:00N 49°53' W 003°09'714.2
2017-Sep-14 09:30N 49°57' W 002°59'714.6
2017-Sep-14 09:00N 49°59' W 002°49'815.2
2017-Sep-14 08:30N 50°01' W 002°37'2115.9
2017-Sep-14 07:11N 50°07' W 002°06'316.4
2017-Sep-14 07:00N 50°08' W 002°02'816.4
2017-Sep-14 06:30N 50°10' W 001°49'816.2
2017-Sep-14 06:01N 50°12' W 001°37'815.8
2017-Sep-14 05:30N 50°14' W 001°25'815.4
2017-Sep-14 05:01N 50°16' W 001°13'3013.8
2017-Sep-14 02:49N 50°24' W 000°28'413.1
2017-Sep-14 02:30N 50°26' W 000°22'813.2
2017-Sep-14 01:54N 50°29' W 000°10'513.5
2017-Sep-14 01:30N 50°30' W 000°02'713.6
2017-Sep-14 01:01N 50°32' E 000°08'713.8
2017-Sep-14 00:31N 50°34' E 000°18'714.3
2017-Sep-14 00:00N 50°36' E 000°29'714.7
2017-Sep-13 23:31N 50°39' E 000°40'  
Track history (hours):
 
Tides and Currents Weather Stations Pressure Air Temp Water Temp Dewpoint Dewpoint Depression Visibility Wind Speed Wind Dir Waves Ship Positions

Wec Mondriaan

Last reported at 2017-Sep-23 23:30 UTC. Time now 2017-Sep-23 23:56 UTC.
Position N 52°22' W 005°35'.

Length 134 m; draft 7.2 m.

Type: Ship (hazmat cat A). MMSI: 255805775.

Date/timePositionNaut miles runAvg speedWind from/ knotsBaromVisibWave heightAir tempDewpointWater temp
2017-Sep-23 23:30N 52°22' W 005°35'113 2.5
2017-Sep-22 01:52N 53°28' W 003°02'0 0.6
2017-Sep-22 01:30N 53°27' W 003°02'0 0.0
2017-Sep-22 01:00N 53°27' W 003°02'1 1.1
2017-Sep-22 00:30N 53°27' W 003°01'0 0.5
2017-Sep-22 00:00N 53°27' W 003°01'1 1.3
2017-Sep-21 23:31N 53°27' W 003°02'713.1
2017-Sep-21 23:00N 53°32' W 003°10'917.2
2017-Sep-21 22:30N 53°30' W 003°24'2 3.5
2017-Sep-21 21:58N 53°29' W 003°27'0 0.0
2017-Sep-21 21:28N 53°29' W 003°27'0 0.0
2017-Sep-21 20:58N 53°29' W 003°27'0 0.0
2017-Sep-21 20:28N 53°29' W 003°27'0 0.0
2017-Sep-21 19:58N 53°29' W 003°27'0 0.0
2017-Sep-21 19:28N 53°29' W 003°27'0 0.0
2017-Sep-21 18:58N 53°29' W 003°27'0 0.0
2017-Sep-21 18:25N 53°29' W 003°27'0 0.0
2017-Sep-21 17:55N 53°29' W 003°27'0 0.2
2017-Sep-21 17:28N 53°29' W 003°27'0 0.1
2017-Sep-21 16:58N 53°29' W 003°27'0 0.1
2017-Sep-21 16:28N 53°29' W 003°27'0 0.0
2017-Sep-21 15:55N 53°29' W 003°27'0 0.0
2017-Sep-21 15:25N 53°29' W 003°27'0 0.0
2017-Sep-21 14:58N 53°29' W 003°27'0 0.0
2017-Sep-21 14:25N 53°29' W 003°27'0 0.0
2017-Sep-21 13:58N 53°29' W 003°27'0 0.1
2017-Sep-21 13:28N 53°29' W 003°27'0 0.3
2017-Sep-21 12:55N 53°29' W 003°27'0 0.2
2017-Sep-21 12:22N 53°29' W 003°27'0 0.1
2017-Sep-21 11:58N 53°29' W 003°27'0 0.1
2017-Sep-21 11:28N 53°29' W 003°27'0 0.0
2017-Sep-21 10:43N 53°29' W 003°27'0 0.0
2017-Sep-21 10:28N 53°29' W 003°27'0 0.1
2017-Sep-21 09:58N 53°29' W 003°27'0 0.1
2017-Sep-21 09:28N 53°29' W 003°27'0 0.0
2017-Sep-21 08:58N 53°29' W 003°27'0 0.0
2017-Sep-21 08:25N 53°29' W 003°27'0 0.0
2017-Sep-21 07:58N 53°29' W 003°27'0 0.1
2017-Sep-21 07:28N 53°29' W 003°27'0 0.2
2017-Sep-21 06:46N 53°29' W 003°27'0 0.3
2017-Sep-21 06:28N 53°29' W 003°27'0 0.0
2017-Sep-21 05:58N 53°29' W 003°27'0 0.0
2017-Sep-21 05:28N 53°29' W 003°27'0 0.4
2017-Sep-21 05:00N 53°30' W 003°28'5 9.5
2017-Sep-21 04:30N 53°31' W 003°35'714.3
2017-Sep-21 04:00N 53°31' W 003°47'714.2
2017-Sep-21 03:30N 53°30' W 003°59'34515.9
2017-Sep-20 05:43N 48°11' W 007°29'1416.6
2017-Sep-20 04:54N 47°58' W 007°36'1617.3
2017-Sep-20 03:59N 47°43' W 007°43'51616.3
2017-Sep-18 20:14N 39°16' W 009°52'416.3
2017-Sep-18 20:01N 39°12' W 009°52'816.1
2017-Sep-18 19:31N 39°04' W 009°52'816.3
2017-Sep-18 19:00N 38°56' W 009°52'815.7
2017-Sep-18 18:30N 38°48' W 009°52'815.6
2017-Sep-18 18:00N 38°40' W 009°50'714.6
2017-Sep-18 17:30N 38°35' W 009°44'816.3
2017-Sep-18 17:00N 38°30' W 009°36'816.1
2017-Sep-18 16:30N 38°26' W 009°27'815.4
2017-Sep-18 16:00N 38°22' W 009°19'815.2
2017-Sep-18 15:30N 38°20' W 009°09'714.3
2017-Sep-18 15:00N 38°23' W 009°01'713.6
2017-Sep-18 14:31N 38°29' W 008°57'4 7.3
2017-Sep-18 13:58N 38°31' W 008°52'0 0.0
2017-Sep-18 12:34N 38°31' W 008°52'0 0.0
2017-Sep-18 12:29N 38°31' W 008°52'0 0.0
2017-Sep-18 10:53N 38°31' W 008°52'0 0.0
2017-Sep-18 10:29N 38°31' W 008°52'0 0.0
2017-Sep-18 09:59N 38°31' W 008°52'0 0.0
2017-Sep-18 09:23N 38°31' W 008°52'0 0.0
2017-Sep-18 08:59N 38°31' W 008°52'0 0.0
2017-Sep-18 08:29N 38°31' W 008°52'0 0.0
2017-Sep-18 07:59N 38°31' W 008°52'0 0.0
2017-Sep-18 07:29N 38°31' W 008°52'0 0.0
2017-Sep-18 06:59N 38°31' W 008°52'0 0.0
2017-Sep-18 06:29N 38°31' W 008°52'0 0.0
2017-Sep-18 05:59N 38°31' W 008°52'0 0.0
2017-Sep-18 05:29N 38°31' W 008°52'0 0.0
2017-Sep-18 04:59N 38°31' W 008°52'0 0.0
2017-Sep-18 04:29N 38°31' W 008°52'0 0.0
2017-Sep-18 03:59N 38°31' W 008°52'0 0.0
2017-Sep-18 03:26N 38°31' W 008°52'0 0.0
2017-Sep-18 02:59N 38°31' W 008°52'0 0.0
2017-Sep-18 02:29N 38°31' W 008°52'0 0.0
2017-Sep-18 01:59N 38°31' W 008°52'0 0.0
2017-Sep-18 01:29N 38°31' W 008°52'0 0.0
2017-Sep-18 00:59N 38°31' W 008°52'0 0.0
2017-Sep-18 00:29N 38°31' W 008°52'0 0.0
2017-Sep-17 23:56N 38°31' W 008°52'0 0.0
2017-Sep-17 23:29N 38°31' W 008°52'0 0.0
2017-Sep-17 23:00N 38°31' W 008°52'2 3.8
2017-Sep-17 22:31N 38°30' W 008°55'713.3
2017-Sep-17 22:00N 38°25' W 008°59'816.1
2017-Sep-17 21:30N 38°17' W 008°59'816.2
2017-Sep-17 21:00N 38°09' W 008°59'713.7
2017-Sep-17 20:31N 38°02' W 008°59'714.9
2017-Sep-17 20:01N 37°56' W 008°54'2 4.5
2017-Sep-17 19:28N 37°56' W 008°51'0 0.0
2017-Sep-17 18:58N 37°56' W 008°51'0 0.0
2017-Sep-17 18:28N 37°56' W 008°51'0 0.0
2017-Sep-17 17:58N 37°56' W 008°51'0 0.0
2017-Sep-17 17:28N 37°56' W 008°51'0 0.0
2017-Sep-17 16:58N 37°56' W 008°51'0 0.0
2017-Sep-17 16:28N 37°56' W 008°51'0 0.0
2017-Sep-17 15:58N 37°56' W 008°51'0 0.0
2017-Sep-17 15:28N 37°56' W 008°51'0 0.0
2017-Sep-17 14:58N 37°56' W 008°51'0 0.0
2017-Sep-17 14:28N 37°56' W 008°51'0 0.0
2017-Sep-17 13:58N 37°56' W 008°51'0 0.0
2017-Sep-17 13:28N 37°56' W 008°51'0 0.0
2017-Sep-17 12:58N 37°56' W 008°51'0 0.0
2017-Sep-17 12:28N 37°56' W 008°51'0 0.0
2017-Sep-17 11:58N 37°56' W 008°51'0 0.0
2017-Sep-17 11:28N 37°56' W 008°51'0 0.0
2017-Sep-17 10:58N 37°56' W 008°51'1 1.8
2017-Sep-17 10:30N 37°55' W 008°50'4 8.5
2017-Sep-17 10:00N 37°51' W 008°53'4 8.9
2017-Sep-17 09:30N 37°48' W 008°57'4 8.5
2017-Sep-17 09:01N 37°51' W 009°01'5 9.4
2017-Sep-17 08:30N 37°55' W 009°03'510.4
2017-Sep-17 08:00N 38°01' W 009°02'510.0
2017-Sep-17 07:30N 38°05' W 009°04'511.0
2017-Sep-17 07:00N 38°09' W 009°09'611.1
2017-Sep-17 06:30N 38°14' W 009°13'713.9
2017-Sep-17 06:00N 38°19' W 009°19'816.9
2017-Sep-17 05:30N 38°25' W 009°26'816.7
2017-Sep-17 05:00N 38°31' W 009°33'816.2
2017-Sep-17 04:30N 38°38' W 009°40'816.0
2017-Sep-17 04:00N 38°45' W 009°43'816.4
2017-Sep-17 03:30N 38°54' W 009°43'816.6
2017-Sep-17 03:00N 39°02' W 009°44'816.4
2017-Sep-17 02:30N 39°10' W 009°44'816.7
2017-Sep-17 02:00N 39°18' W 009°44'816.7
2017-Sep-17 01:30N 39°27' W 009°44'916.4
2017-Sep-17 00:59N 39°35' W 009°41'  
2017-Sep-14 11:44N 49°43' W 003°40'312.6
2017-Sep-14 11:30N 49°44' W 003°36'612.6
2017-Sep-14 11:00N 49°47' W 003°27'612.8
2017-Sep-14 10:30N 49°50' W 003°18'713.5
2017-Sep-14 10:00N 49°53' W 003°09'714.2
2017-Sep-14 09:30N 49°57' W 002°59'714.6
2017-Sep-14 09:00N 49°59' W 002°49'815.2
2017-Sep-14 08:30N 50°01' W 002°37'2115.9
2017-Sep-14 07:11N 50°07' W 002°06'316.4
2017-Sep-14 07:00N 50°08' W 002°02'816.4
2017-Sep-14 06:30N 50°10' W 001°49'816.2
2017-Sep-14 06:01N 50°12' W 001°37'815.8
2017-Sep-14 05:30N 50°14' W 001°25'815.4
2017-Sep-14 05:01N 50°16' W 001°13'3013.8
2017-Sep-14 02:49N 50°24' W 000°28'413.1
2017-Sep-14 02:30N 50°26' W 000°22'813.2
2017-Sep-14 01:54N 50°29' W 000°10'513.5
2017-Sep-14 01:30N 50°30' W 000°02'713.6
2017-Sep-14 01:01N 50°32' E 000°08'713.8
2017-Sep-14 00:31N 50°34' E 000°18'714.3
2017-Sep-14 00:00N 50°36' E 000°29'714.7
2017-Sep-13 23:31N 50°39' E 000°40'  

Dump ship's entire track history